Time;durP1;ratioP1;P1;durP2;ratioP2;P2;SDS_P1;SDS_P2;PMS_P1;PMS_P2;Temp;Humidity;BMP_temperature;BMP_pressure;BME280_temperature;BME280_humidity;BME280_pressure;Samples;Min_cycle;Max_cycle;Signal;HPM_P1;HPM_P2
2021/10/09 00:01:39;;;;;;;24.10;18.97;;;14.50;99.90;;;;;;5053954;28;20184;-67
2021/10/09 00:04:05;;;;;;;22.70;19.87;;;14.50;99.90;;;;;;5053966;28;20275;-67
2021/10/09 00:06:31;;;;;;;21.63;19.40;;;14.40;99.90;;;;;;5053887;28;20419;-68
2021/10/09 00:08:57;;;;;;;21.80;19.50;;;14.40;99.90;;;;;;5053864;28;20499;-67
2021/10/09 00:11:34;;;;;;;20.77;18.57;;;14.30;99.90;;;;;;5036816;28;20183;-67
2021/10/09 00:14:01;;;;;;;20.63;18.43;;;14.30;99.90;;;;;;5053573;28;20235;-67
2021/10/09 00:16:27;;;;;;;21.17;18.97;;;14.30;99.90;;;;;;5036454;28;20900;-67
2021/10/09 00:18:53;;;;;;;24.90;22.13;;;14.20;99.90;;;;;;5053415;28;20506;-68
2021/10/09 00:21:19;;;;;;;22.47;20.17;;;14.20;99.90;;;;;;5054431;28;20554;-67
2021/10/09 00:23:44;;;;;;;24.77;20.77;;;14.10;99.90;;;;;;5035129;28;20283;-70
2021/10/09 00:26:10;;;;;;;22.50;20.10;;;14.10;99.90;;;;;;5054156;28;20189;-67
2021/10/09 00:28:36;;;;;;;31.23;19.63;;;14.10;99.90;;;;;;5054346;28;20621;-67
2021/10/09 00:31:01;;;;;;;20.90;18.30;;;14.10;99.90;;;;;;5053288;28;20173;-67
2021/10/09 00:33:27;;;;;;;23.93;19.70;;;14.10;99.90;;;;;;5054023;28;20185;-67
2021/10/09 00:35:53;;;;;;;23.63;21.13;;;14.10;99.90;;;;;;5052779;28;20199;-68
2021/10/09 00:38:18;;;;;;;22.67;20.03;;;14.00;99.90;;;;;;5054081;28;20186;-67
2021/10/09 00:40:44;;;;;;;23.00;20.73;;;14.00;99.90;;;;;;5053412;28;20224;-74
2021/10/09 00:43:10;;;;;;;22.90;20.00;;;14.00;99.90;;;;;;5054009;28;20173;-67
2021/10/09 00:45:36;;;;;;;23.60;21.10;;;14.00;99.90;;;;;;5035473;28;20263;-66
2021/10/09 00:48:02;;;;;;;23.00;20.60;;;14.00;99.90;;;;;;5037481;28;21101;-67
2021/10/09 00:50:28;;;;;;;23.43;21.03;;;14.00;99.90;;;;;;5033881;28;20205;-67
2021/10/09 00:52:56;;;;;;;22.37;20.07;;;14.00;99.90;;;;;;5033119;28;20409;-67
2021/10/09 00:55:23;;;;;;;22.93;20.60;;;14.00;99.90;;;;;;5033939;28;20169;-67
2021/10/09 00:57:50;;;;;;;21.17;18.90;;;13.90;99.90;;;;;;5038515;28;20458;-67
2021/10/09 01:00:16;;;;;;;21.40;19.20;;;13.90;99.90;;;;;;5053423;28;20418;-67
2021/10/09 01:02:41;;;;;;;21.67;19.47;;;13.90;99.90;;;;;;5053599;28;20871;-67
2021/10/09 01:05:09;;;;;;;21.80;19.50;;;13.90;99.90;;;;;;5035017;28;20471;-67
2021/10/09 01:07:35;;;;;;;21.80;19.50;;;13.80;99.90;;;;;;5053622;28;20629;-67
2021/10/09 01:10:01;;;;;;;23.73;20.90;;;13.80;99.90;;;;;;5051996;28;20431;-67
2021/10/09 01:12:27;;;;;;;24.33;21.70;;;13.80;99.90;;;;;;5053416;28;20189;-67
2021/10/09 01:14:53;;;;;;;23.17;20.73;;;13.80;99.90;;;;;;5052642;28;20453;-67
2021/10/09 01:17:19;;;;;;;22.73;20.20;;;13.70;99.90;;;;;;5052535;28;20915;-67
2021/10/09 01:19:45;;;;;;;23.30;20.80;;;13.60;99.90;;;;;;5052903;28;20419;-74
2021/10/09 01:22:10;;;;;;;24.60;20.10;;;13.60;99.90;;;;;;5052647;28;20518;-67
2021/10/09 01:24:37;;;;;;;24.63;21.20;;;13.50;99.90;;;;;;5053168;28;20208;-67
2021/10/09 01:27:03;;;;;;;24.67;20.60;;;13.30;99.90;;;;;;5052553;28;20577;-67
2021/10/09 01:29:29;;;;;;;21.70;19.27;;;13.30;99.90;;;;;;5053102;28;20784;-67
2021/10/09 01:31:55;;;;;;;26.23;20.10;;;13.20;99.90;;;;;;5051782;28;20423;-67
2021/10/09 01:34:24;;;;;;;23.07;20.57;;;13.10;99.90;;;;;;5052381;28;20799;-67
2021/10/09 01:36:50;;;;;;;25.03;22.37;;;13.00;99.90;;;;;;5052217;28;20921;-67
2021/10/09 01:39:16;;;;;;;23.23;20.67;;;12.90;99.90;;;;;;5052887;28;20492;-67
2021/10/09 01:41:47;;;;;;;27.57;19.70;;;12.90;99.90;;;;;;5035174;28;20177;-67
2021/10/09 01:44:14;;;;;;;25.27;20.47;;;13.00;99.90;;;;;;5052436;28;20450;-67
2021/10/09 01:46:41;;;;;;;24.33;20.50;;;13.10;99.90;;;;;;5052590;28;20433;-67
2021/10/09 01:49:09;;;;;;;25.30;21.97;;;13.20;99.90;;;;;;5033875;28;21089;-67
2021/10/09 01:51:35;;;;;;;25.43;20.80;;;13.20;99.90;;;;;;5052456;28;20445;-67
2021/10/09 01:54:01;;;;;;;24.50;21.33;;;13.20;99.90;;;;;;5051822;28;20898;-67
2021/10/09 01:56:27;;;;;;;23.70;21.20;;;13.20;99.90;;;;;;5052890;28;20220;-67
2021/10/09 01:58:53;;;;;;;23.40;20.90;;;13.20;99.90;;;;;;5050267;28;20593;-68
2021/10/09 02:01:19;;;;;;;22.60;20.20;;;13.10;99.90;;;;;;5052279;28;20449;-67
2021/10/09 02:03:47;;;;;;;24.13;21.13;;;13.20;99.90;;;;;;5034804;28;20194;-67
2021/10/09 02:06:13;;;;;;;24.17;19.93;;;13.20;99.90;;;;;;5052172;28;20416;-67
2021/10/09 02:08:39;;;;;;;22.50;19.90;;;13.20;99.90;;;;;;5051612;28;20429;-67
2021/10/09 02:11:11;;;;;;;22.30;19.87;;;13.10;99.90;;;;;;5033412;28;20176;-67
2021/10/09 02:13:59;;;;;;;23.37;20.87;;;13.20;99.90;;;;;;5052547;28;20252;-67
2021/10/09 02:27:10;;;;;;;25.70;22.90;;;12.90;99.90;;;;;;5051668;28;20401;-67
2021/10/09 02:29:36;;;;;;;23.13;20.13;;;12.90;99.90;;;;;;5051488;28;20419;-67
2021/10/09 02:32:01;;;;;;;27.00;22.10;;;13.00;99.90;;;;;;5050852;28;20742;-67
2021/10/09 02:34:27;;;;;;;28.03;22.67;;;13.00;99.90;;;;;;5051335;28;20273;-67
2021/10/09 02:36:53;;;;;;;24.80;22.13;;;13.00;99.90;;;;;;5051291;28;20643;-67
2021/10/09 02:39:19;;;;;;;25.77;22.70;;;13.00;99.90;;;;;;5052104;28;20172;-67
2021/10/09 02:41:44;;;;;;;23.23;20.73;;;12.90;99.90;;;;;;5052072;28;20181;-67
2021/10/09 02:44:10;;;;;;;23.83;20.83;;;12.90;99.90;;;;;;5050908;28;20472;-67
2021/10/09 02:46:36;;;;;;;22.63;20.20;;;12.90;99.90;;;;;;5034170;28;20192;-67
2021/10/09 02:49:02;;;;;;;24.70;20.90;;;12.80;99.90;;;;;;5051069;28;20417;-67
2021/10/09 02:51:28;;;;;;;21.67;18.90;;;12.80;99.90;;;;;;5051955;28;20539;-67
2021/10/09 02:53:54;;;;;;;22.07;19.67;;;12.80;99.90;;;;;;5050780;28;20437;-68
2021/10/09 02:56:19;;;;;;;22.93;19.43;;;12.90;99.90;;;;;;5033824;28;20175;-67
2021/10/09 02:58:45;;;;;;;21.00;18.80;;;12.90;99.90;;;;;;5051857;28;20177;-67
2021/10/09 03:01:11;;;;;;;23.30;18.40;;;12.90;99.90;;;;;;5033266;28;20169;-67
2021/10/09 03:03:37;;;;;;;22.07;19.40;;;12.90;99.90;;;;;;5051740;28;20261;-67
2021/10/09 03:06:03;;;;;;;21.77;19.43;;;12.90;99.90;;;;;;5032865;28;20192;-67
2021/10/09 03:08:28;;;;;;;20.80;18.47;;;12.80;99.90;;;;;;5051779;28;20189;-67
2021/10/09 03:10:54;;;;;;;23.53;19.47;;;12.70;99.90;;;;;;5051037;28;20424;-68
2021/10/09 03:13:20;;;;;;;23.60;20.50;;;12.60;99.90;;;;;;5051584;28;20563;-68
2021/10/09 03:15:45;;;;;;;23.90;20.27;;;12.50;99.90;;;;;;5051834;28;20513;-67
2021/10/09 03:18:11;;;;;;;24.30;21.53;;;12.50;99.90;;;;;;5050617;28;20722;-67
2021/10/09 03:20:37;;;;;;;24.93;20.60;;;12.40;99.90;;;;;;5051545;28;20268;-67
2021/10/09 03:23:03;;;;;;;24.00;20.47;;;12.30;99.90;;;;;;5050802;28;20170;-67
2021/10/09 03:25:29;;;;;;;25.40;20.37;;;12.30;99.90;;;;;;5051543;28;20198;-67
2021/10/09 03:27:54;;;;;;;24.67;20.60;;;12.20;99.90;;;;;;5050617;28;20511;-73
2021/10/09 03:30:20;;;;;;;25.80;19.57;;;12.20;99.90;;;;;;5051035;28;20527;-67
2021/10/09 03:32:46;;;;;;;26.50;21.37;;;12.20;99.90;;;;;;5051014;28;20644;-67
2021/10/09 03:35:12;;;;;;;23.27;19.93;;;12.10;99.90;;;;;;5050332;28;20302;-67
2021/10/09 03:37:39;;;;;;;23.60;21.10;;;11.80;99.90;;;;;;5033423;28;20196;-67
2021/10/09 03:40:08;;;;;;;25.00;20.40;;;11.80;99.90;;;;;;5051296;28;20462;-67
2021/10/09 03:42:45;;;;;;;29.13;21.57;;;11.60;99.90;;;;;;5054936;28;20424;-67
2021/10/09 03:50:20;;;;;;;23.97;19.87;;;11.50;99.90;;;;;;5054873;28;20411;-67
2021/10/09 03:52:45;;;;;;;23.13;20.83;;;11.40;99.90;;;;;;5055364;28;20404;-67
2021/10/09 03:55:16;;;;;;;24.10;20.67;;;11.40;99.90;;;;;;5054341;28;20983;-67
2021/10/09 03:57:43;;;;;;;25.40;20.10;;;11.40;99.90;;;;;;5037419;28;20427;-67
2021/10/09 04:00:11;;;;;;;24.57;20.20;;;11.40;99.90;;;;;;5054278;28;20411;-67
2021/10/09 04:02:36;;;;;;;21.67;19.37;;;11.50;99.90;;;;;;5055275;28;20422;-67
2021/10/09 04:05:03;;;;;;;23.00;20.60;;;11.60;99.90;;;;;;5053894;28;20524;-67
2021/10/09 04:07:28;;;;;;;22.43;19.97;;;11.60;99.90;;;;;;5055051;28;20184;-67
2021/10/09 04:09:54;;;;;;;22.50;20.10;;;11.70;99.90;;;;;;5054382;28;20463;-68
2021/10/09 04:12:20;;;;;;;26.63;21.87;;;11.80;99.90;;;;;;5054980;28;20173;-67
2021/10/09 04:14:46;;;;;;;25.57;21.63;;;11.80;99.90;;;;;;5054916;28;20630;-67
2021/10/09 04:17:12;;;;;;;24.73;20.83;;;11.60;99.90;;;;;;5054025;28;20465;-67
2021/10/09 04:19:37;;;;;;;27.50;22.67;;;11.60;99.90;;;;;;5054895;28;20642;-67
2021/10/09 04:22:03;;;;;;;27.00;21.10;;;11.70;99.90;;;;;;5054179;28;20201;-67
2021/10/09 04:24:29;;;;;;;23.10;20.40;;;11.70;99.90;;;;;;5054724;28;20196;-67
2021/10/09 04:26:55;;;;;;;23.80;20.70;;;11.70;99.90;;;;;;5054164;28;20435;-72
2021/10/09 04:29:21;;;;;;;30.70;23.20;;;11.70;99.90;;;;;;5054418;28;20268;-67
2021/10/09 04:31:47;;;;;;;25.20;21.37;;;11.60;99.90;;;;;;5054643;28;20181;-67
2021/10/09 04:34:12;;;;;;;25.80;21.83;;;11.30;99.90;;;;;;5053843;28;20954;-67
2021/10/09 04:36:38;;;;;;;29.13;22.47;;;11.10;99.90;;;;;;5054192;28;20442;-67
2021/10/09 04:39:04;;;;;;;28.10;21.43;;;10.80;99.90;;;;;;5052337;28;20238;-67
2021/10/09 04:41:30;;;;;;;25.23;21.50;;;10.70;99.90;;;;;;5054593;28;20257;-67
2021/10/09 04:43:55;;;;;;;26.23;21.43;;;10.50;99.90;;;;;;5045422;28;20547;-74
2021/10/09 04:46:21;;;;;;;31.73;23.63;;;10.50;99.90;;;;;;5048292;28;20426;-68
2021/10/09 04:48:47;;;;;;;33.80;24.80;;;10.40;99.90;;;;;;5053370;28;20197;-67
2021/10/09 04:51:13;;;;;;;25.83;22.37;;;10.40;99.90;;;;;;5053004;28;20178;-67
2021/10/09 04:53:39;;;;;;;26.43;22.90;;;10.40;99.90;;;;;;5052923;28;20537;-67
2021/10/09 04:56:05;;;;;;;28.30;22.43;;;10.40;99.90;;;;;;5053404;28;20397;-67
2021/10/09 04:58:30;;;;;;;25.80;21.37;;;10.50;99.90;;;;;;5053777;28;20252;-67
2021/10/09 05:00:56;;;;;;;26.50;20.97;;;10.60;99.90;;;;;;5053394;28;20896;-76
2021/10/09 05:03:22;;;;;;;24.83;21.30;;;10.80;99.90;;;;;;5054125;28;20177;-67
2021/10/09 05:05:48;;;;;;;25.60;22.00;;;10.90;99.90;;;;;;5054108;28;20498;-67
2021/10/09 05:08:13;;;;;;;25.30;20.50;;;11.00;99.90;;;;;;5053114;28;20178;-67
2021/10/09 05:10:40;;;;;;;24.23;20.50;;;11.10;99.90;;;;;;5053432;28;20685;-67
2021/10/09 05:13:06;;;;;;;24.23;20.27;;;11.20;99.90;;;;;;5053295;28;20300;-67
2021/10/09 05:15:33;;;;;;;26.70;21.13;;;11.40;99.90;;;;;;5053857;28;20499;-67
2021/10/09 05:17:58;;;;;;;23.97;20.20;;;11.40;99.90;;;;;;5052920;28;20418;-68
2021/10/09 05:20:24;;;;;;;28.10;21.13;;;11.50;99.90;;;;;;5053302;28;20778;-67
2021/10/09 05:22:50;;;;;;;27.73;22.10;;;11.50;99.90;;;;;;5053339;28;20184;-67
2021/10/09 05:25:16;;;;;;;28.07;20.77;;;11.50;99.90;;;;;;5052945;28;20213;-67
2021/10/09 05:27:53;;;;;;;27.70;22.53;;;11.50;99.90;;;;;;5053193;28;20416;-67
2021/10/09 05:30:19;;;;;;;27.13;22.10;;;11.40;99.90;;;;;;5052788;28;20180;-67
2021/10/09 05:32:59;;;;;;;26.93;21.67;;;11.20;99.90;;;;;;5053417;28;20472;-67
2021/10/09 05:35:26;;;;;;;27.33;22.00;;;11.00;99.90;;;;;;5053557;28;20477;-67
2021/10/09 05:37:53;;;;;;;27.87;22.77;;;11.00;99.90;;;;;;5052997;28;20526;-67
2021/10/09 05:40:18;;;;;;;24.20;20.97;;;10.90;99.90;;;;;;5052688;28;20786;-67
2021/10/09 05:42:44;;;;;;;28.27;21.70;;;10.80;99.90;;;;;;5053325;28;20414;-67
2021/10/09 05:45:10;;;;;;;27.07;21.73;;;10.90;99.90;;;;;;5052560;28;20208;-68
2021/10/09 05:47:38;;;;;;;26.00;22.17;;;10.80;99.90;;;;;;5052942;28;20185;-67
2021/10/09 05:50:08;;;;;;;29.77;23.00;;;10.90;99.90;;;;;;5052551;28;20426;-68
2021/10/09 05:52:50;;;;;;;28.27;23.27;;;10.90;99.90;;;;;;5052911;28;20833;-67
2021/10/09 05:55:20;;;;;;;27.50;22.30;;;11.00;99.90;;;;;;5052543;28;20482;-67
2021/10/09 06:59:44;;;;;;;30.37;23.40;;;10.80;99.90;;;;;;5050460;28;20441;-66
2021/10/09 07:02:11;;;;;;;29.00;23.50;;;10.80;99.90;;;;;;5050232;28;20991;-66
2021/10/09 07:04:37;;;;;;;27.93;22.83;;;10.80;99.90;;;;;;5050221;28;20220;-66
2021/10/09 07:07:06;;;;;;;30.80;23.90;;;10.90;99.90;;;;;;5050885;28;20527;-71
2021/10/09 07:09:32;;;;;;;28.40;22.43;;;11.00;99.90;;;;;;5051906;28;20558;-66
2021/10/09 07:11:57;;;;;;;31.00;22.47;;;11.00;99.90;;;;;;5051788;28;20400;-66
2021/10/09 07:14:23;;;;;;;31.40;23.60;;;11.10;99.90;;;;;;5050891;28;20444;-67
2021/10/09 07:16:50;;;;;;;31.13;23.73;;;11.10;99.90;;;;;;5055218;28;20415;-67
2021/10/09 07:19:16;;;;;;;28.87;24.00;;;11.20;99.90;;;;;;5054599;28;20174;-67
2021/10/09 07:21:41;;;;;;;28.93;23.40;;;11.20;99.90;;;;;;5037859;28;20406;-66
2021/10/09 07:24:07;;;;;;;27.77;23.77;;;11.30;99.90;;;;;;5054574;28;20452;-67
2021/10/09 07:26:34;;;;;;;33.63;25.10;;;11.30;99.90;;;;;;5055316;28;20600;-66
2021/10/09 07:29:00;;;;;;;29.47;23.83;;;11.30;99.90;;;;;;5055113;28;20165;-67
2021/10/09 07:31:27;;;;;;;29.40;23.63;;;11.20;99.90;;;;;;5054934;28;20431;-66
2021/10/09 07:33:53;;;;;;;29.13;22.50;;;11.20;99.90;;;;;;5055218;28;20460;-66
2021/10/09 07:36:18;;;;;;;33.27;22.87;;;11.30;99.90;;;;;;5054617;28;20414;-66
2021/10/09 07:38:45;;;;;;;27.80;23.03;;;11.40;99.90;;;;;;5055208;28;20179;-66
2021/10/09 07:41:11;;;;;;;29.27;21.97;;;11.50;99.90;;;;;;5054979;28;20530;-67
2021/10/09 07:43:37;;;;;;;29.47;23.43;;;11.60;99.90;;;;;;5055529;28;20412;-66
2021/10/09 07:46:02;;;;;;;28.20;22.93;;;11.60;99.90;;;;;;5055444;28;20474;-66
2021/10/09 07:48:28;;;;;;;30.93;22.90;;;11.60;99.90;;;;;;5054491;28;20523;-66
2021/10/09 07:50:56;;;;;;;26.87;23.33;;;11.70;99.90;;;;;;5055442;28;20184;-66
2021/10/09 07:53:22;;;;;;;31.80;23.23;;;11.80;99.90;;;;;;5054605;28;20183;-66
2021/10/09 07:55:48;;;;;;;27.90;22.70;;;11.90;99.90;;;;;;5055153;28;20900;-68
2021/10/09 07:58:14;;;;;;;26.20;22.73;;;11.90;99.90;;;;;;5042543;28;20421;-66
2021/10/09 08:00:40;;;;;;;29.13;23.30;;;11.80;99.90;;;;;;5040137;28;20630;-66
2021/10/09 08:03:06;;;;;;;27.20;22.10;;;11.80;99.90;;;;;;5035077;28;20213;-74
2021/10/09 08:05:34;;;;;;;29.40;23.33;;;11.80;99.90;;;;;;5030437;28;20478;-67
2021/10/09 08:08:02;;;;;;;23.07;20.67;;;11.90;99.90;;;;;;5037279;28;20776;-67
2021/10/09 08:10:28;;;;;;;25.93;21.20;;;12.00;99.90;;;;;;5049999;28;20823;-65
2021/10/09 08:12:53;;;;;;;26.77;20.67;;;12.00;99.90;;;;;;5035140;28;20419;-67
2021/10/09 08:15:19;;;;;;;25.97;21.17;;;12.00;99.90;;;;;;5034480;28;20178;-67
2021/10/09 08:17:45;;;;;;;29.63;23.13;;;11.90;99.90;;;;;;5034787;28;20183;-67
2021/10/09 08:20:11;;;;;;;26.13;21.80;;;12.00;99.90;;;;;;5034326;28;20178;-67
2021/10/09 08:22:41;;;;;;;26.47;21.33;;;12.20;99.90;;;;;;5039099;28;20182;-67
2021/10/09 08:38:55;;;;;;;24.00;20.90;;;12.90;99.90;;;;;;5051992;28;20430;-66
2021/10/09 08:41:21;;;;;;;23.60;21.00;;;13.10;99.90;;;;;;5054048;28;20785;-66
2021/10/09 08:43:50;;;;;;;24.57;20.43;;;13.20;99.90;;;;;;5054383;28;20406;-66
2021/10/09 08:46:18;;;;;;;23.63;20.20;;;13.20;99.90;;;;;;5053633;28;20446;-66
2021/10/09 08:48:47;;;;;;;25.40;21.20;;;13.30;99.90;;;;;;5053934;28;20434;-66
2021/10/09 08:51:21;;;;;;;23.07;20.57;;;13.40;99.90;;;;;;5053720;28;20426;-66
2021/10/09 08:53:47;;;;;;;25.90;20.60;;;13.50;99.90;;;;;;5054131;28;20408;-66
2021/10/09 08:56:31;;;;;;;22.43;18.60;;;13.60;99.90;;;;;;5053332;28;20774;-66
2021/10/09 08:59:30;;;;;;;25.07;20.10;;;13.70;99.90;;;;;;5053583;28;20209;-66
2021/10/09 09:27:06;;;;;;;18.57;16.40;;;15.90;99.60;;;;;;5041036;28;20424;-66
2021/10/09 09:40:07;;;;;;;17.80;15.37;;;16.80;97.30;;;;;;5053726;28;20817;-66
2021/10/09 09:42:41;;;;;;;16.17;14.67;;;16.90;95.70;;;;;;5052710;28;20896;-66
2021/10/09 09:45:10;;;;;;;17.93;15.60;;;17.10;97.40;;;;;;5052977;28;20447;-66
2021/10/09 09:47:41;;;;;;;20.00;16.03;;;17.40;96.50;;;;;;5053281;28;20451;-67
2021/10/09 09:50:14;;;;;;;22.63;15.70;;;17.60;95.00;;;;;;5053049;28;20428;-67
2021/10/09 09:52:42;;;;;;;17.70;15.77;;;17.90;95.80;;;;;;5053092;28;20428;-67
2021/10/09 09:55:10;;;;;;;15.50;14.00;;;18.30;95.70;;;;;;5053107;28;20420;-67
2021/10/09 09:57:37;;;;;;;17.63;15.03;;;18.40;92.90;;;;;;5053023;28;20908;-67
2021/10/09 10:00:10;;;;;;;16.90;15.37;;;18.40;92.50;;;;;;5050164;28;20524;-67
2021/10/09 10:02:49;;;;;;;15.67;14.00;;;18.60;92.90;;;;;;5035879;28;20444;-66
2021/10/09 10:05:16;;;;;;;17.53;15.07;;;18.90;93.90;;;;;;5051906;28;20844;-73
2021/10/09 10:07:42;;;;;;;15.90;14.30;;;19.10;91.50;;;;;;5052290;28;20476;-66
2021/10/09 10:10:09;;;;;;;14.20;12.80;;;19.30;91.70;;;;;;5052466;28;20428;-66
2021/10/09 10:12:37;;;;;;;15.77;14.17;;;19.60;91.30;;;;;;5052370;28;20169;-66
2021/10/09 10:15:06;;;;;;;13.70;12.40;;;19.60;88.40;;;;;;5051390;28;20965;-66
2021/10/09 10:17:42;;;;;;;18.40;13.40;;;19.70;89.40;;;;;;5052303;28;20432;-66
2021/10/09 10:20:13;;;;;;;14.90;13.40;;;19.90;88.10;;;;;;5052805;28;20401;-66
2021/10/09 10:22:42;;;;;;;14.63;13.23;;;20.10;87.10;;;;;;5052821;28;20426;-67
2021/10/09 10:25:29;;;;;;;14.47;12.93;;;20.30;87.60;;;;;;5050965;28;20462;-66
2021/10/09 10:28:09;;;;;;;14.03;12.73;;;20.70;89.00;;;;;;5052431;28;20458;-67
2021/10/09 10:30:41;;;;;;;13.77;12.37;;;20.90;87.40;;;;;;5051446;28;20511;-67
2021/10/09 10:33:06;;;;;;;14.50;13.20;;;21.20;84.10;;;;;;5052313;28;20762;-65
2021/10/09 10:35:32;;;;;;;29.77;26.10;;;21.20;80.50;;;;;;5050728;28;20464;-66
2021/10/09 10:38:21;;;;;;;40.87;36.20;;;21.30;82.60;;;;;;5051876;28;20209;-66
2021/10/09 10:40:54;;;;;;;34.27;27.53;;;21.40;82.80;;;;;;5038593;28;20272;-67
2021/10/09 10:46:02;;;;;;;17.00;13.67;;;21.80;79.50;;;;;;5051592;28;20498;-67
2021/10/09 10:48:46;;;;;;;14.70;13.20;;;22.00;80.70;;;;;;5050819;28;20436;-66
2021/10/09 10:51:47;;;;;;;14.40;13.10;;;22.00;76.60;;;;;;5038383;28;20502;-66
2021/10/09 10:56:56;;;;;;;13.07;11.77;;;21.90;77.40;;;;;;5056350;28;20404;-67
2021/10/09 10:59:57;;;;;;;13.67;12.30;;;22.00;78.30;;;;;;5055213;28;20747;-67
2021/10/09 11:02:28;;;;;;;13.23;11.93;;;22.10;79.30;;;;;;5020430;28;20430;-67
2021/10/09 11:05:03;;;;;;;13.83;12.73;;;22.30;78.40;;;;;;5038163;28;20879;-67
2021/10/09 11:07:34;;;;;;;15.50;14.00;;;22.50;79.10;;;;;;5054005;28;20848;-67
2021/10/09 11:10:03;;;;;;;15.53;14.03;;;22.60;73.80;;;;;;5056151;28;20459;-67
2021/10/09 11:12:31;;;;;;;14.30;12.90;;;22.50;74.40;;;;;;5053387;28;20415;-67
2021/10/09 11:15:22;;;;;;;13.60;12.40;;;22.40;75.90;;;;;;5056065;28;20420;-71
2021/10/09 11:17:59;;;;;;;14.73;13.47;;;22.50;78.10;;;;;;5043641;28;20811;-70
2021/10/09 11:20:32;;;;;;;14.67;12.70;;;22.70;78.40;;;;;;5021547;28;20442;-67
2021/10/09 11:23:02;;;;;;;15.33;13.90;;;22.80;80.10;;;;;;5049366;28;21102;-67
2021/10/09 11:25:36;;;;;;;14.60;13.20;;;23.10;78.20;;;;;;5053931;28;20846;-68
2021/10/09 11:28:05;;;;;;;79.53;66.07;;;23.20;77.70;;;;;;5054323;28;20523;-67
2021/10/09 11:30:32;;;;;;;204.93;168.00;;;23.40;78.00;;;;;;5054583;28;20419;-67
2021/10/09 11:32:59;;;;;;;20.17;18.17;;;23.60;75.20;;;;;;5054961;28;20447;-66
2021/10/09 11:35:35;;;;;;;17.43;15.87;;;23.80;75.20;;;;;;5053617;28;20574;-67
2021/10/09 11:38:04;;;;;;;16.03;14.47;;;23.90;75.90;;;;;;5055172;28;20424;-67
2021/10/09 11:46:08;;;;;;;16.03;14.63;;;24.00;77.30;;;;;;5055019;28;20459;-65
2021/10/09 11:55:01;;;;;;;16.20;14.70;;;23.70;76.10;;;;;;5055044;28;20428;-66
2021/10/09 11:57:14;;;;;;;18.30;16.40;;;23.60;77.50;;;;;;5054302;28;20498;-66
2021/10/09 11:59:41;;;;;;;16.53;15.10;;;23.50;78.70;;;;;;5052127;28;20649;-67
2021/10/09 12:02:08;;;;;;;16.43;14.93;;;23.40;78.50;;;;;;5051498;28;20177;-67
2021/10/09 12:04:35;;;;;;;18.10;16.40;;;23.20;79.10;;;;;;5054037;28;20452;-66
2021/10/09 12:09:34;;;;;;;17.73;15.93;;;22.90;80.70;;;;;;5054005;28;20428;-65
2021/10/09 12:12:21;;;;;;;18.00;16.40;;;22.70;80.40;;;;;;5044239;28;20429;-66
2021/10/09 12:14:49;;;;;;;20.33;16.17;;;22.50;81.40;;;;;;5048732;28;20833;-66
2021/10/09 12:17:16;;;;;;;16.80;15.17;;;22.30;82.00;;;;;;5054630;28;20759;-68
2021/10/09 12:19:42;;;;;;;16.73;15.17;;;22.20;81.80;;;;;;5054259;28;20491;-71
2021/10/09 12:22:13;;;;;;;17.70;15.27;;;22.10;90.40;;;;;;5055039;28;20397;-71
2021/10/09 12:24:50;;;;;;;17.13;15.53;;;22.10;90.00;;;;;;5054916;28;20498;-71
2021/10/09 12:27:40;;;;;;;18.30;16.50;;;22.00;88.50;;;;;;5037260;28;20408;-71
2021/10/09 12:30:12;;;;;;;17.83;16.20;;;22.10;85.60;;;;;;5058612;28;20446;-71
2021/10/09 12:32:49;;;;;;;18.20;15.53;;;22.00;83.90;;;;;;5059783;28;20440;-71
2021/10/09 12:35:23;;;;;;;18.43;16.67;;;22.00;82.40;;;;;;5056382;28;20885;-71
2021/10/09 12:37:59;;;;;;;18.40;16.30;;;22.00;82.00;;;;;;5054343;28;20497;-68
2021/10/09 12:40:40;;;;;;;18.67;16.67;;;21.90;81.00;;;;;;5034183;28;20865;-71
2021/10/09 12:43:08;;;;;;;19.97;18.17;;;21.70;81.10;;;;;;5034364;28;20751;-66
2021/10/09 12:45:34;;;;;;;18.17;16.37;;;21.50;81.50;;;;;;5048249;28;20462;-66
2021/10/09 12:48:00;;;;;;;19.53;17.30;;;21.40;82.00;;;;;;5054193;28;20942;-67
2021/10/09 12:50:31;;;;;;;19.50;17.60;;;21.30;82.00;;;;;;5053419;28;20404;-65
2021/10/09 12:52:57;;;;;;;19.33;17.17;;;21.10;81.40;;;;;;5054428;28;20412;-67
2021/10/09 12:55:26;;;;;;;21.10;17.87;;;21.00;82.30;;;;;;5053702;28;20412;-66
2021/10/09 12:57:56;;;;;;;20.93;17.30;;;20.90;83.40;;;;;;5052706;28;20417;-65
2021/10/09 13:00:24;;;;;;;19.70;16.10;;;20.70;84.20;;;;;;5036013;28;20416;-72
2021/10/09 13:02:53;;;;;;;18.47;16.57;;;20.60;84.20;;;;;;5034758;28;20421;-66
2021/10/09 13:05:21;;;;;;;18.50;16.60;;;20.60;83.60;;;;;;5016000;28;20460;-66
2021/10/09 13:07:47;;;;;;;17.60;15.80;;;20.50;85.00;;;;;;5032886;28;20424;-66
2021/10/09 13:10:13;;;;;;;17.57;15.73;;;20.30;85.20;;;;;;5038117;28;20408;-66
2021/10/09 13:12:39;;;;;;;17.60;15.80;;;20.20;85.00;;;;;;5051824;28;20212;-66
2021/10/09 13:15:05;;;;;;;18.13;16.23;;;20.10;84.60;;;;;;5053455;28;20423;-66
2021/10/09 13:17:30;;;;;;;17.33;15.50;;;20.00;86.00;;;;;;5052677;28;20170;-66
2021/10/09 13:19:56;;;;;;;17.27;15.47;;;20.00;85.40;;;;;;5035220;28;20420;-66
2021/10/09 13:22:22;;;;;;;21.43;15.90;;;20.00;87.10;;;;;;5053159;28;20185;-66
2021/10/09 13:24:48;;;;;;;17.27;15.57;;;20.00;87.40;;;;;;5034097;28;20708;-66
2021/10/09 13:27:13;;;;;;;19.00;15.97;;;20.00;87.10;;;;;;5053135;28;20181;-66
2021/10/09 13:29:39;;;;;;;16.50;14.80;;;19.90;86.30;;;;;;5052348;28;20185;-66
2021/10/09 13:32:05;;;;;;;19.20;15.80;;;20.00;87.30;;;;;;5052853;28;20269;-66
2021/10/09 13:34:31;;;;;;;18.40;15.70;;;20.00;87.80;;;;;;5051600;28;20666;-66
2021/10/09 13:36:57;;;;;;;17.00;15.40;;;20.00;87.60;;;;;;5053212;28;20421;-66
2021/10/09 13:39:23;;;;;;;19.23;14.90;;;20.00;87.40;;;;;;5034757;28;20439;-68
2021/10/09 13:41:49;;;;;;;18.00;16.20;;;20.00;87.70;;;;;;5049680;28;20166;-66
2021/10/09 13:44:14;;;;;;;16.93;15.17;;;20.00;86.80;;;;;;5039852;28;20292;-66
2021/10/09 13:46:40;;;;;;;16.33;14.30;;;20.00;87.80;;;;;;5044149;28;20252;-68
2021/10/09 13:49:06;;;;;;;16.70;15.10;;;20.10;86.00;;;;;;5049376;28;20204;-68
2021/10/09 13:51:33;;;;;;;17.40;15.70;;;20.20;86.40;;;;;;5050382;28;20182;-69
2021/10/09 13:53:59;;;;;;;18.57;15.70;;;20.30;87.10;;;;;;5051990;28;20412;-69
2021/10/09 13:56:25;;;;;;;17.57;15.67;;;20.40;87.80;;;;;;5052352;28;20762;-77
2021/10/09 13:58:51;;;;;;;17.30;14.27;;;20.40;85.10;;;;;;5053019;28;20411;-68
2021/10/09 14:01:17;;;;;;;17.60;14.70;;;20.40;84.00;;;;;;5053089;28;20487;-68
2021/10/09 14:03:44;;;;;;;15.13;13.73;;;20.50;85.10;;;;;;5052236;28;20698;-69
2021/10/09 14:06:10;;;;;;;17.70;15.00;;;20.50;86.80;;;;;;5052894;28;20254;-68
2021/10/09 14:08:36;;;;;;;15.50;13.90;;;20.50;85.90;;;;;;5052288;28;20417;-69
2021/10/09 14:11:03;;;;;;;16.27;14.57;;;20.60;86.10;;;;;;5052599;28;20409;-68
2021/10/09 14:13:29;;;;;;;19.30;15.07;;;20.50;84.80;;;;;;5052270;28;20165;-68
2021/10/09 14:15:55;;;;;;;15.40;13.80;;;20.40;83.90;;;;;;5052815;28;20890;-68
2021/10/09 14:18:21;;;;;;;14.83;13.33;;;20.30;84.50;;;;;;5052819;28;20403;-68
2021/10/09 14:20:54;;;;;;;16.37;14.77;;;20.30;86.50;;;;;;5034309;28;20558;-68
2021/10/09 14:23:21;;;;;;;15.63;13.60;;;20.30;85.40;;;;;;5052618;28;20181;-68
2021/10/09 14:25:48;;;;;;;14.50;13.00;;;20.40;85.30;;;;;;5051706;28;20703;-68
2021/10/09 14:28:16;;;;;;;15.53;14.10;;;20.30;83.90;;;;;;5052868;28;20440;-68
2021/10/09 14:30:42;;;;;;;15.77;13.97;;;20.30;84.10;;;;;;5051992;28;20408;-68
2021/10/09 14:33:08;;;;;;;15.00;13.57;;;20.30;85.00;;;;;;5052652;28;20396;-68
2021/10/09 14:35:37;;;;;;;14.80;13.27;;;20.40;85.00;;;;;;5051647;28;20459;-68
2021/10/09 14:38:04;;;;;;;17.50;14.17;;;20.40;84.70;;;;;;5052578;28;20456;-68
2021/10/09 14:40:31;;;;;;;16.03;13.27;;;20.40;85.10;;;;;;5051825;28;20404;-69
2021/10/09 14:42:57;;;;;;;14.20;12.67;;;20.40;86.00;;;;;;5034061;28;20412;-68
2021/10/09 14:45:25;;;;;;;15.47;13.87;;;20.40;86.00;;;;;;5051815;28;20459;-68
2021/10/09 14:48:10;;;;;;;15.73;14.33;;;20.50;83.70;;;;;;5051476;28;20435;-68
2021/10/09 15:20:25;;;;;;;14.70;13.00;;;20.10;83.60;;;;;;5051962;28;20439;-68
2021/10/09 15:22:51;;;;;;;14.73;13.27;;;20.10;84.20;;;;;;5051547;28;20408;-68
2021/10/09 15:25:17;;;;;;;14.83;12.57;;;20.10;84.00;;;;;;5052032;28;20661;-68
2021/10/09 15:27:42;;;;;;;17.23;13.80;;;20.10;84.90;;;;;;5051145;28;20204;-69